createdAt,value
2019-01-17T00:06:24.450Z,77.39
2019-01-17T00:09:05.973Z,78.69
2019-01-17T00:11:54.067Z,78.02
2019-01-17T00:14:29.973Z,78.81
2019-01-17T00:17:18.763Z,79.22
2019-01-17T00:20:06.864Z,80.79
2019-01-17T00:22:54.951Z,79.49
2019-01-17T00:25:42.927Z,79.57
2019-01-17T00:28:27.924Z,80.81
2019-01-17T00:31:16.705Z,79.21
2019-01-17T00:33:56.563Z,79.18
2019-01-17T00:36:44.443Z,78.96
2019-01-17T00:39:32.489Z,78.66
2019-01-17T00:42:13.769Z,78.67
2019-01-17T00:45:01.701Z,79.74
2019-01-17T00:47:50.582Z,79.97
2019-01-17T00:50:29.786Z,80.15
2019-01-17T00:53:18.571Z,80.87
2019-01-17T00:56:06.460Z,81.17
2019-01-17T01:02:10.534Z,80.64
2019-01-17T01:04:59.288Z,80.53
2019-01-17T01:07:47.223Z,80.27
2019-01-17T01:10:35.262Z,79.67
2019-01-17T01:13:23.307Z,80.67
2019-01-17T01:16:15.201Z,80.62
2019-01-17T01:18:53.003Z,80.18
2019-01-17T01:21:42.368Z,80.28
2019-01-17T01:24:31.331Z,80.76
2019-01-17T01:27:11.694Z,80.22
2019-01-17T01:30:01.681Z,80.11
2019-01-17T01:32:49.749Z,80.52
2019-01-17T01:35:37.663Z,80.75
2019-01-17T01:38:25.645Z,81.57
2019-01-17T01:41:13.680Z,81.67
2019-01-17T01:46:55.131Z,81.71
2019-01-17T01:49:43.126Z,81.45
2019-01-17T01:52:31.010Z,82.37
2019-01-17T01:54:59.509Z,83.39
2019-01-17T01:57:28.847Z,83.29
2019-01-17T01:59:58.184Z,82.83
2019-01-17T02:02:27.509Z,83.20
2019-01-17T02:04:56.867Z,82.97
2019-01-17T02:07:26.198Z,83.74
2019-01-17T02:09:55.511Z,84.22
2019-01-17T02:12:37.171Z,85.42
2019-01-17T02:15:06.602Z,83.91
2019-01-17T02:17:36.019Z,84.34
2019-01-17T02:20:06.317Z,85.79
2019-01-17T02:22:34.945Z,85.27
2019-01-17T02:25:04.658Z,85.12
2019-01-17T02:27:33.106Z,84.62
2019-01-17T02:30:01.724Z,85.00
2019-01-17T02:32:31.068Z,84.93
2019-01-17T02:35:00.371Z,84.82
2019-01-17T02:37:29.692Z,85.85
2019-01-17T02:39:59.008Z,86.34
2019-01-17T02:42:28.334Z,85.44
2019-01-17T02:44:57.679Z,86.41
2019-01-17T02:47:26.115Z,86.41
2019-01-17T02:49:54.646Z,87.67
2019-01-17T02:52:23.994Z,85.84
2019-01-17T02:54:53.411Z,85.97
2019-01-17T02:57:22.758Z,86.61
2019-01-17T02:59:52.083Z,86.62
2019-01-17T03:02:21.424Z,87.45
2019-01-17T03:04:50.850Z,87.10
2019-01-17T03:07:20.236Z,87.14
2019-01-17T03:09:49.544Z,87.30
2019-01-17T03:12:18.872Z,88.62
2019-01-17T03:14:47.313Z,87.70
2019-01-17T03:17:15.844Z,87.35
2019-01-17T03:19:45.188Z,88.39
2019-01-17T03:22:14.510Z,88.20
2019-01-17T03:24:43.825Z,89.50
2019-01-17T03:27:13.166Z,89.49
2019-01-17T03:29:42.483Z,88.35
2019-01-17T03:32:11.816Z,88.79
2019-01-17T03:34:40.358Z,88.74
2019-01-17T03:37:08.770Z,89.48
2019-01-17T03:39:38.095Z,89.08
2019-01-17T03:45:10.239Z,89.57
2019-01-17T03:47:38.977Z,88.97
2019-01-17T03:50:10.484Z,89.03
2019-01-17T03:52:39.116Z,89.32
2019-01-17T03:55:10.155Z,89.76
2019-01-17T03:57:38.800Z,89.62
2019-01-17T04:00:10.585Z,90.84
2019-01-17T04:02:39.216Z,89.00
2019-01-17T04:05:08.668Z,89.56
2019-01-17T04:07:37.998Z,90.43
2019-01-17T04:10:08.680Z,90.53
2019-01-17T04:12:37.197Z,90.20
2019-01-17T04:15:07.126Z,90.40
2019-01-17T04:17:35.833Z,89.84
2019-01-17T04:20:07.213Z,90.85
2019-01-17T04:22:35.750Z,91.00
2019-01-17T04:25:05.607Z,90.99
2019-01-17T04:27:34.931Z,90.47
2019-01-17T04:30:06.327Z,89.80
2019-01-17T04:32:34.848Z,90.26
2019-01-17T04:35:04.458Z,88.82
2019-01-17T04:37:33.094Z,89.69
2019-01-17T04:40:01.517Z,89.73
2019-01-17T04:42:30.833Z,91.65
2019-01-17T04:45:00.265Z,90.53
2019-01-17T04:47:29.872Z,90.46
2019-01-17T04:49:59.222Z,89.97
2019-01-17T04:52:27.741Z,90.26
2019-01-17T04:54:57.072Z,89.73
2019-01-17T04:57:26.388Z,89.61
2019-01-17T04:59:55.014Z,89.69
2019-01-17T05:02:23.549Z,89.80
2019-01-17T05:04:52.882Z,92.59
2019-01-17T05:07:22.216Z,89.89
2019-01-17T05:09:51.549Z,89.09
2019-01-17T05:12:20.898Z,89.38
2019-01-17T05:14:50.226Z,91.18
2019-01-17T05:17:19.637Z,90.64
2019-01-17T05:19:48.990Z,89.57
2019-01-17T05:22:17.427Z,91.74
2019-01-17T05:24:45.849Z,92.21
2019-01-17T05:27:15.219Z,91.41
2019-01-17T05:29:44.541Z,90.59
2019-01-17T05:32:14.294Z,90.99
2019-01-17T05:34:43.617Z,90.82
2019-01-17T05:37:12.941Z,91.13
2019-01-17T05:39:42.265Z,91.62
2019-01-17T05:42:11.594Z,91.04
2019-01-17T05:44:40.918Z,92.26
2019-01-17T05:47:10.233Z,92.44
2019-01-17T05:49:38.783Z,91.32
2019-01-17T05:52:07.307Z,91.75
2019-01-17T05:54:36.655Z,92.02
2019-01-17T05:57:06.073Z,91.19
2019-01-17T05:59:35.407Z,91.51
2019-01-17T06:02:04.747Z,90.93
2019-01-17T06:04:34.079Z,91.50
2019-01-17T06:07:02.616Z,89.97
2019-01-17T06:09:31.948Z,90.44
2019-01-17T06:12:00.389Z,91.80
2019-01-17T06:14:28.940Z,92.27
2019-01-17T06:16:58.274Z,91.54
2019-01-17T06:19:27.633Z,91.70
2019-01-17T06:21:56.955Z,90.93
2019-01-17T06:24:26.301Z,90.80
2019-01-17T06:26:55.675Z,90.90
2019-01-17T06:29:24.056Z,91.17
2019-01-17T06:31:53.381Z,91.80
2019-01-17T06:34:22.864Z,90.27
2019-01-17T06:36:51.277Z,91.05
2019-01-17T06:39:19.759Z,89.69
2019-01-17T06:41:49.078Z,90.04
2019-01-17T06:44:20.473Z,89.89
2019-01-17T06:47:07.629Z,90.81
2019-01-17T06:49:36.956Z,91.25
2019-01-17T06:52:06.283Z,90.14
2019-01-17T06:54:36.027Z,90.13
2019-01-17T06:57:05.357Z,90.22
2019-01-17T06:59:34.716Z,90.70
2019-01-17T07:02:03.663Z,90.63
2019-01-17T07:04:32.224Z,89.58
2019-01-17T07:07:00.740Z,89.80
2019-01-17T07:09:30.072Z,89.55
2019-01-17T07:11:59.425Z,89.50
2019-01-17T07:14:27.988Z,89.20
2019-01-17T07:16:57.343Z,87.96
2019-01-17T07:19:26.681Z,87.83
2019-01-17T07:21:55.204Z,87.23
2019-01-17T07:24:23.755Z,87.87
2019-01-17T07:26:52.279Z,87.29
2019-01-17T07:29:21.638Z,87.61
2019-01-17T07:31:50.942Z,87.78
2019-01-17T07:34:20.362Z,87.45
2019-01-17T07:36:48.980Z,86.97
2019-01-17T07:39:18.986Z,87.03
2019-01-17T07:41:47.505Z,87.03
2019-01-17T07:44:16.512Z,86.89
2019-01-17T07:46:45.040Z,87.22
2019-01-17T07:49:14.377Z,87.47
2019-01-17T07:51:43.744Z,87.55
2019-01-17T07:54:13.067Z,87.18
2019-01-17T07:56:42.387Z,87.30
2019-01-17T07:59:11.707Z,87.22
2019-01-17T08:01:40.241Z,87.08
2019-01-17T08:04:08.672Z,87.48
2019-01-17T08:06:37.213Z,87.12
2019-01-17T08:09:08.588Z,87.04
2019-01-17T08:11:37.146Z,87.41
2019-01-17T08:14:05.692Z,86.42
2019-01-17T08:16:34.240Z,85.53
2019-01-17T08:19:02.762Z,84.36
2019-01-17T08:21:32.087Z,84.39
2019-01-17T08:24:00.610Z,85.20
2019-01-17T08:26:29.265Z,91.09
2019-01-17T08:28:58.116Z,85.27
2019-01-17T08:31:26.550Z,81.94
2019-01-17T08:33:55.068Z,84.17
2019-01-17T08:36:23.705Z,80.42
2019-01-17T08:38:52.240Z,79.36
2019-01-17T08:41:21.571Z,78.91
2019-01-17T08:43:50.104Z,78.86
2019-01-17T08:46:18.655Z,77.74
2019-01-17T08:48:47.094Z,77.33
2019-01-17T08:51:15.843Z,77.09
2019-01-17T08:53:45.177Z,77.47
2019-01-17T08:56:14.523Z,77.30
2019-01-17T08:58:43.861Z,77.63
2019-01-17T09:01:12.388Z,76.99
2019-01-17T09:03:40.816Z,75.72
2019-01-17T09:06:10.475Z,75.64
2019-01-17T09:08:39.839Z,74.95
2019-01-17T09:11:09.279Z,74.63
2019-01-17T09:13:38.607Z,74.31
2019-01-17T09:16:07.941Z,73.75
2019-01-17T09:18:37.273Z,73.18
2019-01-17T09:21:06.630Z,73.18
2019-01-17T09:23:35.983Z,73.19
2019-01-17T09:26:07.625Z,72.40
2019-01-17T09:28:54.557Z,71.46
2019-01-17T09:31:23.898Z,70.58
2019-01-17T09:33:52.539Z,69.73
2019-01-17T09:36:21.874Z,69.62
2019-01-17T09:38:51.220Z,69.13
2019-01-17T09:41:20.745Z,68.51
2019-01-17T09:44:09.761Z,68.10
2019-01-17T09:46:39.106Z,68.14
2019-01-17T09:49:07.744Z,67.95
2019-01-17T09:51:36.271Z,67.23
2019-01-17T09:54:05.613Z,67.49
2019-01-17T09:56:34.039Z,67.20
2019-01-17T09:59:02.592Z,66.70
2019-01-17T10:01:32.076Z,66.60
2019-01-17T10:04:01.537Z,65.57
2019-01-17T10:06:30.876Z,66.55
2019-01-17T10:09:00.281Z,65.18
2019-01-17T10:11:29.747Z,65.11
2019-01-17T10:13:58.295Z,64.86
2019-01-17T10:16:50.164Z,64.24
2019-01-17T10:19:58.223Z,64.24
2019-01-17T10:23:05.536Z,63.33
2019-01-17T10:26:21.176Z,62.93
2019-01-17T10:33:07.388Z,63.26
2019-01-17T10:36:20.928Z,61.76
2019-01-17T10:39:29.043Z,61.84
2019-01-17T10:42:36.303Z,61.50
2019-01-17T10:45:33.366Z,60.63
2019-01-17T10:48:37.695Z,60.70
2019-01-17T10:51:28.233Z,60.48
2019-01-17T10:54:20.510Z,60.75
2019-01-17T10:57:27.775Z,59.72
2019-01-17T11:00:24.257Z,63.23
2019-01-17T11:03:32.733Z,58.02
2019-01-17T11:06:47.929Z,58.44
2019-01-17T11:10:10.414Z,58.18
2019-01-17T11:12:55.658Z,58.19
2019-01-17T11:16:09.087Z,57.85
2019-01-17T11:19:17.143Z,57.67
2019-01-17T11:22:08.611Z,58.28
2019-01-17T11:25:16.652Z,58.29
2019-01-17T11:28:23.980Z,57.72
2019-01-17T11:31:31.239Z,58.13
2019-01-17T11:34:38.581Z,57.73
2019-01-17T11:37:45.849Z,57.55
2019-01-17T11:40:53.173Z,57.10
2019-01-17T11:44:01.254Z,56.49
2019-01-17T11:47:08.404Z,57.12
2019-01-17T11:50:15.658Z,57.69
2019-01-17T11:53:12.288Z,57.03
2019-01-17T11:56:09.347Z,57.41
2019-01-17T11:59:17.420Z,56.67
2019-01-17T12:02:24.764Z,57.14
2019-01-17T12:04:52.120Z,57.78
2019-01-17T12:07:21.620Z,57.21
2019-01-17T12:09:50.955Z,57.02
2019-01-17T12:12:39.747Z,56.79
2019-01-17T12:15:08.880Z,56.49
2019-01-17T12:17:38.234Z,56.54
2019-01-17T12:20:07.759Z,56.82
2019-01-17T12:22:36.721Z,57.25
2019-01-17T12:25:06.020Z,56.35
2019-01-17T12:27:35.357Z,56.97
2019-01-17T12:30:08.416Z,57.15
2019-01-17T12:32:37.198Z,56.45
2019-01-17T12:35:07.020Z,56.13
2019-01-17T12:37:35.788Z,56.25
2019-01-17T12:40:06.323Z,55.93
2019-01-17T12:42:34.878Z,54.99
2019-01-17T12:45:05.384Z,55.63
2019-01-17T12:47:33.946Z,56.25
2019-01-17T12:53:09.391Z,57.52
2019-01-17T12:55:37.856Z,56.77
2019-01-17T12:58:07.168Z,57.24
2019-01-17T13:00:36.502Z,58.20
2019-01-17T13:03:05.855Z,57.50
2019-01-17T13:05:35.303Z,56.92
2019-01-17T13:08:04.760Z,56.73
2019-01-17T13:10:34.097Z,56.40
2019-01-17T13:13:03.545Z,56.38
2019-01-17T13:15:32.931Z,56.34
2019-01-17T13:18:02.405Z,56.29
2019-01-17T13:20:31.272Z,56.71
2019-01-17T13:22:59.797Z,57.02
2019-01-17T13:25:29.162Z,57.07
2019-01-17T13:27:58.520Z,56.04
2019-01-17T13:30:27.878Z,56.82
2019-01-17T13:32:57.485Z,57.77
2019-01-17T13:35:26.018Z,57.53
2019-01-17T13:37:55.365Z,57.20
2019-01-17T13:40:24.707Z,57.74
2019-01-17T13:42:54.036Z,57.37
2019-01-17T13:45:22.684Z,57.40
2019-01-17T13:47:51.359Z,57.50
2019-01-17T13:50:20.976Z,57.45
2019-01-17T13:52:50.452Z,56.57
2019-01-17T13:55:19.853Z,57.44
2019-01-17T13:57:49.200Z,57.29
2019-01-17T14:00:20.839Z,57.87
2019-01-17T14:02:49.687Z,57.94
2019-01-17T14:05:19.317Z,58.70
2019-01-17T14:10:51.222Z,59.45
2019-01-17T14:13:20.614Z,59.93
2019-01-17T14:15:49.956Z,60.89
2019-01-17T14:18:19.280Z,61.50
2019-01-17T14:20:48.629Z,61.85
2019-01-17T14:23:17.970Z,62.80
2019-01-17T14:25:47.433Z,63.11
2019-01-17T14:28:16.767Z,63.69
2019-01-17T14:30:46.109Z,64.02
2019-01-17T14:33:15.576Z,64.72
2019-01-17T14:35:45.028Z,63.92
2019-01-17T14:38:14.459Z,64.18
2019-01-17T14:40:43.885Z,64.92
2019-01-17T14:43:13.294Z,65.70
2019-01-17T14:45:42.685Z,66.21
2019-01-17T14:48:12.107Z,66.63
2019-01-17T14:50:41.466Z,67.48
2019-01-17T14:53:10.874Z,68.38
2019-01-17T14:55:40.217Z,69.21
2019-01-17T14:58:09.559Z,69.58
2019-01-17T15:00:38.889Z,70.49
2019-01-17T15:03:08.239Z,71.17
2019-01-17T15:05:37.575Z,71.73
2019-01-17T15:08:06.924Z,72.15
2019-01-17T15:10:38.657Z,72.89
2019-01-17T15:13:07.693Z,73.24
2019-01-17T15:15:37.186Z,73.75
2019-01-17T15:21:09.623Z,74.62
2019-01-17T15:23:38.616Z,75.57
2019-01-17T15:26:08.203Z,75.82
2019-01-17T15:28:37.549Z,76.13
2019-01-17T15:31:06.883Z,76.52
2019-01-17T15:33:36.222Z,76.40
2019-01-17T15:36:05.583Z,76.67
2019-01-17T15:38:34.951Z,77.48
2019-01-17T15:41:04.398Z,76.83
2019-01-17T15:43:33.799Z,77.11
2019-01-17T15:46:02.651Z,77.31
2019-01-17T15:48:32.001Z,78.17
2019-01-17T15:51:01.606Z,79.35
2019-01-17T15:53:30.354Z,79.18
2019-01-17T15:55:59.712Z,78.01
2019-01-17T15:58:29.085Z,78.62
2019-01-17T16:00:58.430Z,78.39
2019-01-17T16:03:27.768Z,79.58
2019-01-17T16:05:57.092Z,79.82
2019-01-17T16:08:25.646Z,79.48
2019-01-17T16:10:54.969Z,78.90
2019-01-17T16:13:24.308Z,79.41
2019-01-17T16:15:53.671Z,79.17
2019-01-17T16:18:23.012Z,79.98
2019-01-17T16:20:52.353Z,80.09
2019-01-17T16:23:21.686Z,80.54
2019-01-17T16:25:51.034Z,81.34
2019-01-17T16:28:20.393Z,81.55
2019-01-17T16:30:49.718Z,82.65
2019-01-17T16:33:19.056Z,83.94
2019-01-17T16:35:47.987Z,84.66
2019-01-17T16:38:17.327Z,84.69
2019-01-17T16:40:46.572Z,83.73
2019-01-17T16:43:15.901Z,84.31
2019-01-17T16:45:45.244Z,85.60
2019-01-17T16:48:14.621Z,83.48
2019-01-17T16:50:44.020Z,83.04
2019-01-17T16:53:13.356Z,83.55
2019-01-17T16:55:42.286Z,85.91
2019-01-17T16:58:11.641Z,84.45
2019-01-17T17:00:42.999Z,83.92
2019-01-17T17:03:11.448Z,85.75
2019-01-17T17:05:40.894Z,86.37
2019-01-17T17:08:10.243Z,88.22
2019-01-17T17:10:39.585Z,89.26
2019-01-17T17:13:08.936Z,89.18
2019-01-17T17:15:37.785Z,89.19
2019-01-17T17:18:07.124Z,89.61
2019-01-17T17:20:35.669Z,89.35
2019-01-17T17:23:05.007Z,90.52
2019-01-17T17:25:34.336Z,91.15
2019-01-17T17:28:03.866Z,91.85
2019-01-17T17:30:32.408Z,92.03
2019-01-17T17:33:01.049Z,92.14
2019-01-17T17:35:29.991Z,92.77
2019-01-17T17:37:59.317Z,92.60
2019-01-17T17:40:29.808Z,92.80
2019-01-17T17:42:58.586Z,93.35
2019-01-17T17:45:28.734Z,92.06
2019-01-17T17:47:59.165Z,92.50
2019-01-17T17:50:27.903Z,92.24
2019-01-17T17:52:57.241Z,90.77
2019-01-17T17:55:26.630Z,90.39
2019-01-17T17:58:01.959Z,89.47
2019-01-17T18:01:04.651Z,87.76
2019-01-17T18:03:33.987Z,87.00
2019-01-17T18:06:02.541Z,86.65
2019-01-17T18:08:31.534Z,86.45
2019-01-17T18:11:00.908Z,86.09
2019-01-17T18:13:30.192Z,86.21
2019-01-17T18:15:59.547Z,86.20
2019-01-17T18:18:28.865Z,85.91
2019-01-17T18:20:58.212Z,85.50
2019-01-17T18:23:27.541Z,86.17
2019-01-17T18:25:56.880Z,85.97
2019-01-17T18:28:26.222Z,86.83
2019-01-17T18:30:55.550Z,87.65
2019-01-17T18:33:24.197Z,88.50
2019-01-17T18:35:52.730Z,87.83
2019-01-17T18:38:21.262Z,87.85
2019-01-17T18:40:50.925Z,87.07
2019-01-17T18:43:20.255Z,87.62
2019-01-17T18:45:49.586Z,87.94
2019-01-17T18:48:19.162Z,88.79
2019-01-17T18:50:48.750Z,88.98
2019-01-17T18:53:18.264Z,88.72
2019-01-17T18:55:47.605Z,88.88
2019-01-17T18:58:16.950Z,88.61
2019-01-17T19:00:46.452Z,88.98
2019-01-17T19:03:15.343Z,88.45
2019-01-17T19:05:44.125Z,88.36
2019-01-17T19:08:13.709Z,88.74
2019-01-17T19:10:43.459Z,88.38
2019-01-17T19:13:12.819Z,88.25
2019-01-17T19:15:42.263Z,88.83
2019-01-17T19:18:11.706Z,87.87
2019-01-17T19:20:41.042Z,88.38
2019-01-17T19:23:10.375Z,88.09
2019-01-17T19:25:38.997Z,87.88
2019-01-17T19:28:08.433Z,89.04
2019-01-17T19:30:36.863Z,89.47
2019-01-17T19:35:45.403Z,89.73
2019-01-17T19:38:14.777Z,90.66
2019-01-17T19:40:44.110Z,91.21
2019-01-17T19:43:13.440Z,91.83
2019-01-17T19:45:42.787Z,92.49
2019-01-17T19:48:12.116Z,91.94
2019-01-17T19:50:41.464Z,91.25
2019-01-17T19:53:10.231Z,91.28
2019-01-17T19:55:38.958Z,91.24
2019-01-17T19:58:07.482Z,90.84
2019-01-17T20:00:36.793Z,91.00
2019-01-17T20:03:06.318Z,92.35
2019-01-17T20:05:35.955Z,92.18
2019-01-17T20:08:05.290Z,92.19
2019-01-17T20:10:35.714Z,91.98
2019-01-17T20:13:05.641Z,91.71
2019-01-17T20:18:18.838Z,92.49
2019-01-17T20:20:48.175Z,93.14
2019-01-17T20:23:17.499Z,93.71
2019-01-17T20:25:46.846Z,92.55
2019-01-17T20:28:16.156Z,93.78
2019-01-17T20:30:45.482Z,95.13
2019-01-17T20:33:14.806Z,94.20
2019-01-17T20:35:44.149Z,93.92
2019-01-17T20:38:13.476Z,93.73
2019-01-17T20:40:42.040Z,94.21
2019-01-17T20:43:11.367Z,94.32
2019-01-17T20:45:40.695Z,93.53
2019-01-17T20:48:10.024Z,92.81
2019-01-17T20:50:39.462Z,92.47
2019-01-17T20:53:08.791Z,92.68
2019-01-17T20:55:38.125Z,91.95
2019-01-17T20:58:07.451Z,91.94
2019-01-17T21:01:15.502Z,92.78
2019-01-17T21:03:44.028Z,93.94
2019-01-17T21:06:12.752Z,95.18
2019-01-17T21:08:41.393Z,94.48
2019-01-17T21:11:10.757Z,95.05
2019-01-17T21:13:39.192Z,95.33
2019-01-17T21:16:08.509Z,93.40
2019-01-17T21:18:37.843Z,92.29
2019-01-17T21:21:07.185Z,92.69
2019-01-17T21:23:35.713Z,94.27
2019-01-17T21:26:04.253Z,94.12
2019-01-17T21:28:33.569Z,93.62
2019-01-17T21:31:02.898Z,94.36
2019-01-17T21:33:32.232Z,93.10
2019-01-17T21:36:01.558Z,93.18
2019-01-17T21:38:30.898Z,93.93
2019-01-17T21:41:00.209Z,93.07
2019-01-17T21:43:28.630Z,93.87
2019-01-17T21:45:57.055Z,95.18
2019-01-17T21:48:25.532Z,94.02
2019-01-17T21:50:54.845Z,93.87
2019-01-17T21:53:24.167Z,92.99
2019-01-17T21:55:53.490Z,93.62
2019-01-17T21:58:23.977Z,95.08
2019-01-17T22:00:52.514Z,95.60
2019-01-17T22:03:20.942Z,94.48
2019-01-17T22:05:50.267Z,94.48
2019-01-17T22:08:18.893Z,94.85
2019-01-17T22:10:47.612Z,95.32
2019-01-17T22:13:17.038Z,96.56
2019-01-17T22:15:46.350Z,96.15
2019-01-17T22:18:15.665Z,96.23
2019-01-17T22:20:44.991Z,94.99
2019-01-17T22:23:14.342Z,97.03
2019-01-17T22:25:43.689Z,96.96
2019-01-17T22:28:13.017Z,96.41
2019-01-17T22:30:42.607Z,97.01
2019-01-17T22:33:11.977Z,97.08
2019-01-17T22:35:41.296Z,97.46
2019-01-17T22:38:10.631Z,96.96
2019-01-17T22:40:39.271Z,97.18
2019-01-17T22:43:08.733Z,97.25
2019-01-17T22:45:38.151Z,98.24
2019-01-17T22:48:07.484Z,97.32
2019-01-17T22:50:36.826Z,96.29
2019-01-17T22:53:06.142Z,97.96
2019-01-17T22:55:35.474Z,98.11
2019-01-17T22:58:03.887Z,96.90
2019-01-17T23:01:11.247Z,95.97
2019-01-17T23:03:41.935Z,97.03
2019-01-17T23:06:10.468Z,98.35
2019-01-17T23:08:39.781Z,96.75
2019-01-17T23:11:09.108Z,96.87
2019-01-17T23:13:38.543Z,99.06
2019-01-17T23:16:07.903Z,99.00
2019-01-17T23:18:37.272Z,97.93
2019-01-17T23:21:06.606Z,99.52
2019-01-17T23:23:35.029Z,98.71
2019-01-17T23:26:03.691Z,99.19
2019-01-17T23:28:33.030Z,99.87
2019-01-17T23:31:02.367Z,99.88
2019-01-17T23:33:30.983Z,99.28
2019-01-17T23:36:00.313Z,98.44
2019-01-17T23:38:29.651Z,98.87
2019-01-17T23:40:58.173Z,97.01
2019-01-17T23:43:26.818Z,96.92
2019-01-17T23:45:55.239Z,96.35
2019-01-17T23:48:23.895Z,96.69
2019-01-17T23:50:53.214Z,98.52
2019-01-17T23:53:22.552Z,98.99
2019-01-17T23:55:51.925Z,98.06
2019-01-17T23:58:21.201Z,97.72
